Time;durP1;ratioP1;P1;durP2;ratioP2;P2;SDS_P1;SDS_P2;PMS_P1;PMS_P2;Temp;Humidity;BMP_temperature;BMP_pressure;BME280_temperature;BME280_humidity;BME280_pressure;Samples;Min_cycle;Max_cycle;Signal;HPM_P1;HPM_P2
2021/12/21 00:02:19;;;;;;;8.90;5.20;;;;;;;2.03;61.57;99930.48;117347;1184;23434;-58
2021/12/21 00:04:47;;;;;;;8.10;4.70;;;;;;;2.03;61.81;99936.36;117307;1183;23432;-58
2021/12/21 00:07:16;;;;;;;7.90;4.60;;;;;;;2.05;61.93;99939.33;117351;1185;21867;-58
2021/12/21 00:09:44;;;;;;;6.20;4.30;;;;;;;2.06;61.87;99942.45;117338;1184;21860;-59
2021/12/21 00:12:15;;;;;;;8.10;4.90;;;;;;;2.05;61.76;99946.79;117299;1186;21859;-60
2021/12/21 00:15:19;;;;;;;7.80;4.90;;;;;;;2.05;61.85;99951.45;117240;1185;21864;-59
2021/12/21 00:17:48;;;;;;;7.50;4.50;;;;;;;2.05;61.75;99956.80;117292;1182;21871;-56
2021/12/21 00:25:21;;;;;;;5.40;3.70;;;;;;;2.08;61.81;99975.90;117463;1183;21869;-56
2021/12/21 00:27:51;;;;;;;6.40;4.10;;;;;;;2.13;61.86;99978.77;117300;1181;23467;-59
2021/12/21 00:30:22;;;;;;;6.30;3.90;;;;;;;2.17;61.70;99982.98;117274;1186;22628;-57
2021/12/21 00:32:51;;;;;;;6.70;4.10;;;;;;;2.19;61.69;99986.47;117262;1182;21871;-58
2021/12/21 00:35:20;;;;;;;6.10;4.00;;;;;;;2.18;61.74;99989.74;117134;1186;21892;-57
2021/12/21 00:37:48;;;;;;;6.10;3.80;;;;;;;2.22;61.69;99991.17;117305;1184;21868;-56
2021/12/21 00:40:16;;;;;;;6.60;3.70;;;;;;;2.25;61.83;99992.77;117308;1182;21877;-57
2021/12/21 00:42:45;;;;;;;6.70;3.40;;;;;;;2.27;61.70;99999.04;117389;1186;22009;-56
2021/12/21 00:45:13;;;;;;;5.00;3.20;;;;;;;2.32;61.74;100001.20;117338;1183;24144;-57
2021/12/21 00:47:48;;;;;;;6.00;3.50;;;;;;;2.36;61.75;100003.00;117282;1184;22013;-56
2021/12/21 00:50:17;;;;;;;4.80;3.20;;;;;;;2.41;61.85;100004.80;117268;1181;22933;-58
2021/12/21 00:52:47;;;;;;;4.50;2.90;;;;;;;2.42;61.62;100002.73;117279;1186;22980;-59
2021/12/21 00:55:15;;;;;;;5.20;3.20;;;;;;;2.43;61.65;100008.48;117298;1176;21871;-58
2021/12/21 00:57:43;;;;;;;5.10;2.80;;;;;;;2.45;61.64;100013.33;117350;1180;23473;-59
2021/12/21 01:00:13;;;;;;;4.40;2.50;;;;;;;2.44;61.65;100012.98;117370;1186;23449;-59
2021/12/21 01:02:42;;;;;;;4.60;2.60;;;;;;;2.43;61.65;100012.80;117348;1183;21863;-59
2021/12/21 01:05:36;;;;;;;3.60;2.20;;;;;;;2.43;61.64;100012.45;117218;1185;21943;-56
2021/12/21 01:08:04;;;;;;;4.70;2.50;;;;;;;2.43;61.69;100015.05;117300;1186;21859;-56
2021/12/21 01:10:51;;;;;;;4.60;2.20;;;;;;;2.43;61.65;100020.76;117370;1186;21956;-59
2021/12/21 01:13:36;;;;;;;3.50;2.00;;;;;;;2.42;61.73;100027.50;117297;1186;21863;-59
2021/12/21 01:19:16;;;;;;;5.90;2.50;;;;;;;2.43;61.59;100040.16;117347;1182;21857;-57
2021/12/21 01:21:58;;;;;;;3.60;1.60;;;;;;;2.42;61.58;100036.85;117317;1183;21859;-56
2021/12/21 01:25:23;;;;;;;3.20;1.80;;;;;;;2.36;61.77;100036.07;118585;1185;23503;-57
2021/12/21 01:35:00;;;;;;;3.10;1.90;;;;;;;2.22;61.56;100046.91;117493;1185;22130;-58
2021/12/21 01:37:47;;;;;;;3.50;1.60;;;;;;;2.19;61.67;100052.94;117400;1185;21859;-59
2021/12/21 01:40:32;;;;;;;2.10;1.30;;;;;;;2.15;61.67;100053.58;117305;1184;21858;-58
2021/12/21 01:43:17;;;;;;;2.30;1.20;;;;;;;2.14;61.67;100058.91;117325;1186;22008;-56
2021/12/21 01:51:20;;;;;;;2.00;1.10;;;;;;;2.12;61.78;100061.99;117321;1181;21857;-58
2021/12/21 01:53:48;;;;;;;2.40;1.20;;;;;;;2.10;61.56;100061.61;117387;1184;21917;-59
2021/12/21 01:56:17;;;;;;;1.80;1.00;;;;;;;2.00;61.62;100058.67;117363;1183;21847;-56
2021/12/21 01:58:46;;;;;;;2.30;1.10;;;;;;;1.91;61.74;100063.36;117395;1185;21840;-58
2021/12/21 02:01:19;;;;;;;3.20;1.30;;;;;;;1.85;61.68;100062.04;117366;1185;23433;-56
2021/12/21 02:03:47;;;;;;;2.90;1.30;;;;;;;1.78;61.74;100074.36;117387;1186;21865;-59
2021/12/21 02:06:19;;;;;;;3.00;1.20;;;;;;;1.71;61.60;100073.55;117382;1186;21857;-56
2021/12/21 02:08:49;;;;;;;2.50;1.10;;;;;;;1.63;61.64;100079.46;117332;1186;22100;-56
2021/12/21 02:11:18;;;;;;;2.10;1.00;;;;;;;1.58;61.75;100083.66;117346;1183;21885;-58
2021/12/21 02:13:49;;;;;;;1.50;0.80;;;;;;;1.54;61.81;100087.06;117350;1185;23682;-56
2021/12/21 02:16:25;;;;;;;2.20;0.70;;;;;;;1.50;61.78;100089.93;117379;1185;21905;-58
2021/12/21 02:19:03;;;;;;;5.60;2.50;;;;;;;1.45;61.58;100092.78;117358;1186;21866;-56
2021/12/21 02:21:55;;;;;;;2.30;0.80;;;;;;;1.41;61.56;100101.31;117261;1187;22654;-58
2021/12/21 02:24:36;;;;;;;2.80;1.10;;;;;;;1.36;61.55;100104.17;117312;1186;22913;-56
2021/12/21 02:27:24;;;;;;;3.00;1.30;;;;;;;1.32;61.84;100106.34;117373;1183;21830;-56
2021/12/21 02:29:53;;;;;;;3.70;1.60;;;;;;;1.29;61.65;100117.01;117353;1184;23452;-56
2021/12/21 02:32:22;;;;;;;4.40;1.30;;;;;;;1.26;61.68;100123.84;117350;1184;21918;-56
2021/12/21 02:34:51;;;;;;;2.40;0.80;;;;;;;1.21;61.58;100122.52;117312;1185;23664;-56
2021/12/21 02:37:19;;;;;;;2.10;0.80;;;;;;;1.17;61.41;100131.95;117380;1186;21905;-58
2021/12/21 02:39:47;;;;;;;1.60;0.70;;;;;;;1.15;61.49;100126.54;117310;1184;21862;-57
2021/12/21 02:42:16;;;;;;;1.60;0.90;;;;;;;1.10;61.31;100132.32;117320;1183;21859;-56
2021/12/21 02:44:48;;;;;;;2.90;1.40;;;;;;;1.06;61.55;100136.52;117315;1184;21918;-59
2021/12/21 02:47:16;;;;;;;4.10;1.60;;;;;;;1.02;61.51;100133.86;117326;1183;21867;-58
2021/12/21 02:49:44;;;;;;;2.90;1.00;;;;;;;0.99;61.39;100143.98;117368;1186;21873;-56
2021/12/21 02:52:12;;;;;;;2.00;0.80;;;;;;;0.95;61.68;100140.09;117363;1185;21845;-59
2021/12/21 02:54:43;;;;;;;;;;;;;;;0.91;61.72;100142.39;117334;1189;21966;-59
2021/12/21 02:57:11;;;;;;;6.80;3.00;;;;;;;0.85;61.50;100143.17;117348;1186;21989;-56
2021/12/21 02:59:40;;;;;;;4.50;1.70;;;;;;;0.81;61.29;100146.52;117350;1185;22883;-59
2021/12/21 03:02:08;;;;;;;11.80;4.70;;;;;;;0.74;61.28;100148.75;117319;1183;21861;-59
2021/12/21 03:04:36;;;;;;;6.20;2.00;;;;;;;0.67;61.68;100149.99;117291;1184;24256;-58
2021/12/21 03:12:26;;;;;;;1.70;0.80;;;;;;;0.54;61.65;100160.55;117371;1185;21944;-58
2021/12/21 03:14:55;;;;;;;2.30;0.90;;;;;;;0.52;61.56;100169.13;117351;1184;21874;-56
2021/12/21 03:17:23;;;;;;;1.40;0.40;;;;;;;0.48;61.36;100172.98;117287;1184;22722;-59
2021/12/21 03:19:52;;;;;;;1.80;0.40;;;;;;;0.44;61.66;100173.24;117370;1186;21903;-57
2021/12/21 03:22:20;;;;;;;1.10;0.50;;;;;;;0.40;61.30;100179.52;117324;1186;21870;-59
2021/12/21 03:24:48;;;;;;;1.30;0.40;;;;;;;0.34;61.01;100175.40;117369;1182;22072;-58
2021/12/21 03:27:17;;;;;;;1.80;0.60;;;;;;;0.30;61.12;100173.74;117323;1186;21861;-58
2021/12/21 03:29:45;;;;;;;4.20;0.60;;;;;;;0.27;61.10;100187.81;117364;1184;22575;-56
2021/12/21 03:32:13;;;;;;;4.00;1.60;;;;;;;0.25;61.14;100193.96;117334;1183;21860;-58
2021/12/21 03:34:41;;;;;;;9.60;3.90;;;;;;;0.24;61.03;100194.65;117350;1186;21861;-59
2021/12/21 03:37:12;;;;;;;16.70;5.40;;;;;;;0.22;61.12;100197.35;117293;1184;21861;-56
2021/12/21 03:39:42;;;;;;;13.00;3.80;;;;;;;0.19;60.85;100209.03;117360;1184;24172;-59
2021/12/21 03:42:14;;;;;;;3.60;1.60;;;;;;;0.16;61.12;100212.73;117296;1186;21868;-56
2021/12/21 03:44:43;;;;;;;2.80;1.70;;;;;;;0.13;60.90;100214.73;117330;1184;21858;-59
2021/12/21 03:47:12;;;;;;;3.00;1.60;;;;;;;0.10;61.14;100217.23;117332;1184;21859;-59
2021/12/21 03:52:16;;;;;;;2.10;0.90;;;;;;;0.04;61.21;100212.39;117397;1185;22646;-59
2021/12/21 03:54:49;;;;;;;2.70;1.20;;;;;;;0.00;61.05;100215.05;117347;1185;21861;-59
2021/12/21 03:57:21;;;;;;;4.00;1.70;;;;;;;-0.04;60.95;100219.42;117289;1185;21859;-56
2021/12/21 03:59:50;;;;;;;2.90;1.60;;;;;;;-0.05;60.80;100218.19;117365;1184;23561;-58
2021/12/21 04:02:19;;;;;;;2.90;1.10;;;;;;;-0.09;60.61;100226.20;117321;1186;23467;-56
2021/12/21 04:04:48;;;;;;;2.70;1.30;;;;;;;-0.12;60.81;100230.77;117358;1182;23445;-56
2021/12/21 04:07:17;;;;;;;5.10;1.20;;;;;;;-0.14;60.69;100234.65;117370;1182;24159;-58
2021/12/21 04:09:48;;;;;;;4.10;1.70;;;;;;;-0.19;60.75;100243.67;117355;1182;23462;-56
2021/12/21 04:12:17;;;;;;;3.60;1.20;;;;;;;-0.21;60.87;100249.12;117161;1186;21858;-56
2021/12/21 04:14:46;;;;;;;3.50;1.70;;;;;;;-0.22;60.71;100258.42;117372;1185;21855;-56
2021/12/21 04:17:21;;;;;;;2.70;1.30;;;;;;;-0.23;60.95;100264.08;117362;1182;21860;-59
2021/12/21 04:19:50;;;;;;;1.20;0.70;;;;;;;-0.25;60.77;100267.63;117140;1186;21862;-58
2021/12/21 04:22:19;;;;;;;1.90;0.70;;;;;;;-0.30;60.62;100273.70;117412;1186;23699;-58
2021/12/21 04:24:47;;;;;;;1.00;0.30;;;;;;;-0.36;60.73;100279.04;117344;1185;23550;-55
2021/12/21 04:27:16;;;;;;;1.20;0.50;;;;;;;-0.39;60.55;100282.74;117368;1186;23436;-58
2021/12/21 04:29:44;;;;;;;0.90;0.40;;;;;;;-0.42;60.77;100282.29;117340;1186;23440;-58
2021/12/21 04:32:12;;;;;;;0.80;0.30;;;;;;;-0.46;60.74;100284.79;117289;1186;22916;-58
2021/12/21 04:34:43;;;;;;;0.80;0.30;;;;;;;-0.48;60.75;100293.67;117349;1181;21863;-59
2021/12/21 04:37:12;;;;;;;1.80;0.50;;;;;;;-0.51;60.95;100299.27;117339;1185;24146;-55
2021/12/21 04:39:47;;;;;;;1.80;0.50;;;;;;;-0.53;60.56;100307.80;117368;1184;23436;-59
2021/12/21 04:42:16;;;;;;;1.10;0.40;;;;;;;-0.55;60.73;100312.76;117369;1185;21857;-56
2021/12/21 04:44:44;;;;;;;0.60;0.30;;;;;;;-0.57;60.83;100317.16;117349;1182;21863;-55
2021/12/21 04:47:13;;;;;;;0.80;0.40;;;;;;;-0.60;60.62;100315.36;117372;1186;21870;-57
2021/12/21 04:49:41;;;;;;;1.70;1.40;;;;;;;-0.64;60.71;100315.05;117403;1186;23287;-59
2021/12/21 04:52:09;;;;;;;1.10;0.50;;;;;;;-0.67;60.63;100316.86;117357;1184;22629;-55
2021/12/21 04:54:39;;;;;;;1.10;0.60;;;;;;;-0.72;60.60;100316.88;117136;1186;23449;-58
2021/12/21 04:57:08;;;;;;;2.00;0.60;;;;;;;-0.76;60.57;100314.84;117321;1184;21858;-55
2021/12/21 04:59:37;;;;;;;0.70;0.40;;;;;;;-0.79;60.58;100315.27;117317;1186;21849;-55
2021/12/21 05:02:05;;;;;;;3.30;0.70;;;;;;;-0.80;60.61;100316.44;117178;1185;23545;-58
2021/12/21 05:04:35;;;;;;;1.10;0.60;;;;;;;-0.83;60.47;100318.73;117286;1185;23705;-55
2021/12/21 05:07:04;;;;;;;1.70;0.70;;;;;;;-0.87;60.44;100325.66;117322;1185;21858;-58
2021/12/21 05:09:41;;;;;;;0.80;0.40;;;;;;;-0.92;60.58;100326.75;117395;1184;21858;-56
2021/12/21 05:12:11;;;;;;;1.50;0.40;;;;;;;-0.96;60.47;100322.80;117359;1182;23433;-58
2021/12/21 05:14:40;;;;;;;2.10;0.60;;;;;;;-0.98;60.57;100320.14;117334;1184;21861;-56
2021/12/21 05:17:08;;;;;;;1.30;0.60;;;;;;;-1.00;60.50;100312.84;117311;1188;21861;-57
2021/12/21 05:19:37;;;;;;;1.00;0.50;;;;;;;-1.03;60.56;100317.05;117340;1186;23553;-58
2021/12/21 05:22:06;;;;;;;1.10;0.40;;;;;;;-1.05;60.43;100316.31;117300;1186;21874;-55
2021/12/21 05:24:34;;;;;;;1.50;0.60;;;;;;;-1.06;60.33;100323.50;117359;1185;21963;-58
2021/12/21 05:27:03;;;;;;;2.20;0.50;;;;;;;-1.09;60.57;100332.71;117397;1185;23540;-57
2021/12/21 05:29:32;;;;;;;1.60;0.60;;;;;;;-1.09;60.51;100333.73;117438;1176;23463;-56
2021/12/21 05:32:01;;;;;;;1.80;0.50;;;;;;;-1.09;60.42;100333.55;117382;1186;22985;-57
2021/12/21 05:34:30;;;;;;;1.90;0.60;;;;;;;-1.08;60.60;100337.73;117366;1186;21862;-58
2021/12/21 05:37:00;;;;;;;1.20;0.60;;;;;;;-1.10;60.51;100336.98;117319;1184;23459;-56
2021/12/21 05:39:38;;;;;;;2.00;0.80;;;;;;;-1.14;60.41;100338.56;117307;1186;21859;-58
2021/12/21 05:42:08;;;;;;;1.20;0.60;;;;;;;-1.15;60.47;100343.01;117382;1186;23493;-55
2021/12/21 05:44:36;;;;;;;9.40;2.00;;;;;;;-1.13;60.50;100346.52;117392;1185;21891;-57
2021/12/21 05:47:05;;;;;;;1.60;0.70;;;;;;;-1.11;60.64;100352.09;117328;1185;23457;-58
2021/12/21 05:49:34;;;;;;;1.70;0.80;;;;;;;-1.11;60.52;100354.17;117428;1185;23429;-56
2021/12/21 05:52:03;;;;;;;1.60;0.70;;;;;;;-1.10;60.48;100357.80;117330;1184;24163;-58
2021/12/21 05:54:32;;;;;;;1.80;0.70;;;;;;;-1.09;60.61;100364.23;117351;1186;21869;-54
2021/12/21 05:57:00;;;;;;;1.20;0.70;;;;;;;-1.07;60.53;100368.07;117345;1184;22236;-58
2021/12/21 05:59:29;;;;;;;1.30;0.60;;;;;;;-1.07;60.58;100372.90;117283;1186;21867;-55
2021/12/21 06:01:57;;;;;;;1.80;0.70;;;;;;;-1.07;60.63;100378.08;117411;1186;23445;-55
2021/12/21 06:04:26;;;;;;;1.50;0.70;;;;;;;-1.04;60.55;100381.42;117304;1186;21997;-59
2021/12/21 06:06:54;;;;;;;2.00;0.80;;;;;;;-1.01;60.75;100385.50;117286;1183;24132;-55
2021/12/21 06:09:22;;;;;;;2.50;1.10;;;;;;;-0.97;60.82;100384.11;117343;1184;23537;-55
2021/12/21 06:12:09;;;;;;;1.80;0.90;;;;;;;-0.91;60.77;100387.23;117370;1185;21920;-58
2021/12/21 06:15:09;;;;;;;1.50;0.90;;;;;;;-0.83;60.59;100395.58;117356;1186;21830;-57
2021/12/21 06:26:21;;;;;;;2.50;1.20;;;;;;;-0.45;60.99;100417.20;117298;1176;22005;-57
2021/12/21 06:28:43;;;;;;;7.40;1.20;;;;;;;-0.30;61.10;100422.85;117305;1185;21861;-58
2021/12/21 06:31:11;;;;;;;6.10;1.20;;;;;;;-0.27;60.99;100425.71;117310;1186;21867;-57
2021/12/21 06:33:40;;;;;;;2.00;1.00;;;;;;;-0.25;61.00;100434.91;117313;1185;24145;-56
2021/12/21 06:36:08;;;;;;;3.50;1.10;;;;;;;-0.26;60.97;100436.10;117342;1186;22912;-56
2021/12/21 06:38:37;;;;;;;2.80;1.30;;;;;;;-0.23;61.13;100434.48;117344;1184;22940;-55
2021/12/21 06:41:06;;;;;;;1.50;0.70;;;;;;;-0.12;61.28;100442.90;117360;1186;21854;-57
2021/12/21 06:43:34;;;;;;;3.00;1.30;;;;;;;-0.00;61.00;100447.09;117420;1184;21877;-55
2021/12/21 06:46:12;;;;;;;2.80;1.00;;;;;;;0.10;61.03;100446.70;117345;1184;21863;-56
2021/12/21 06:51:43;;;;;;;2.30;1.10;;;;;;;0.26;61.22;100452.03;117342;1185;21863;-57
2021/12/21 06:54:11;;;;;;;2.60;1.40;;;;;;;0.30;60.96;100447.48;117307;1184;22632;-56
2021/12/21 06:56:39;;;;;;;2.80;1.30;;;;;;;0.31;61.01;100445.63;117347;1185;21862;-57
2021/12/21 06:59:07;;;;;;;3.10;1.40;;;;;;;0.31;60.86;100443.73;117310;1185;21866;-55
2021/12/21 07:01:38;;;;;;;2.60;1.30;;;;;;;0.32;60.94;100441.35;117324;1184;23524;-54
2021/12/21 07:04:07;;;;;;;3.00;1.40;;;;;;;0.34;61.16;100437.09;117334;1183;21866;-56
2021/12/21 07:06:37;;;;;;;3.40;1.00;;;;;;;0.36;61.11;100437.49;117393;1185;21871;-55
2021/12/21 07:09:59;;;;;;;2.20;1.10;;;;;;;0.37;61.12;100435.30;117311;1186;22957;-55
2021/12/21 07:12:28;;;;;;;2.80;1.10;;;;;;;0.38;60.84;100433.25;117274;1186;21862;-58
2021/12/21 07:18:26;;;;;;;2.40;1.30;;;;;;;0.43;61.17;100440.66;117325;1182;21859;-58
2021/12/21 07:20:23;;;;;;;4.00;1.40;;;;;;;0.49;61.15;100449.25;117255;1186;22937;-58
2021/12/21 07:22:51;;;;;;;3.50;1.70;;;;;;;0.53;61.07;100451.45;117307;1185;23472;-56
2021/12/21 07:25:19;;;;;;;3.60;1.50;;;;;;;0.59;61.35;100451.83;117328;1182;23540;-57
2021/12/21 07:27:48;;;;;;;6.10;1.80;;;;;;;0.67;61.20;100457.59;117334;1184;21851;-56
2021/12/21 07:30:20;;;;;;;2.80;1.50;;;;;;;0.75;61.48;100461.94;117342;1185;21864;-56
2021/12/21 07:32:49;;;;;;;4.70;2.70;;;;;;;0.80;61.43;100460.20;117326;1185;21860;-58
2021/12/21 07:35:17;;;;;;;7.30;3.50;;;;;;;0.86;61.25;100459.84;117330;1184;22785;-58
2021/12/21 07:37:47;;;;;;;6.10;2.80;;;;;;;0.94;61.07;100464.39;117327;1184;21859;-56
2021/12/21 07:40:15;;;;;;;5.80;2.30;;;;;;;0.95;61.41;100465.79;117381;1186;21953;-56
2021/12/21 07:42:44;;;;;;;4.50;2.20;;;;;;;0.94;61.11;100474.77;117359;1184;23554;-55
2021/12/21 07:45:13;;;;;;;4.20;2.20;;;;;;;0.89;60.96;100473.94;117385;1184;22929;-58
2021/12/21 07:47:42;;;;;;;5.20;2.80;;;;;;;0.82;61.04;100479.09;117365;1185;21861;-55
2021/12/21 07:50:11;;;;;;;4.90;3.00;;;;;;;0.74;61.10;100476.43;117271;1183;23437;-58
2021/12/21 07:52:41;;;;;;;4.60;2.60;;;;;;;0.68;61.26;100475.73;117344;1182;23566;-57
2021/12/21 07:55:10;;;;;;;3.30;1.80;;;;;;;0.64;61.13;100474.23;117367;1185;22983;-56
2021/12/21 07:57:39;;;;;;;3.80;1.90;;;;;;;0.61;61.12;100470.52;117379;1185;21902;-55
2021/12/21 08:00:08;;;;;;;5.00;2.30;;;;;;;0.62;61.18;100475.39;117387;1185;23560;-55
2021/12/21 08:02:39;;;;;;;3.90;2.10;;;;;;;0.65;61.15;100473.07;117394;1182;21864;-56
2021/12/21 08:05:08;;;;;;;3.50;2.20;;;;;;;0.72;61.31;100475.16;117275;1181;22973;-59
2021/12/21 08:07:46;;;;;;;6.70;2.70;;;;;;;0.80;61.28;100472.98;117474;1186;23839;-56
2021/12/21 08:10:25;;;;;;;6.10;2.70;;;;;;;0.89;61.13;100475.50;117371;1185;21874;-56
2021/12/21 08:13:07;;;;;;;5.40;2.40;;;;;;;1.00;61.31;100475.78;117296;1181;21867;-56
2021/12/21 08:15:36;;;;;;;4.00;1.90;;;;;;;1.09;61.32;100477.07;117337;1185;23049;-56
2021/12/21 08:18:05;;;;;;;4.90;2.00;;;;;;;1.20;61.45;100486.71;117346;1185;21851;-56
2021/12/21 08:20:35;;;;;;;4.40;1.80;;;;;;;1.29;61.13;100492.16;117360;1184;23143;-56
2021/12/21 08:23:05;;;;;;;6.80;2.00;;;;;;;1.34;61.15;100496.42;117373;1185;23558;-58
2021/12/21 08:25:35;;;;;;;2.50;1.50;;;;;;;1.38;61.19;100496.36;117406;1185;23579;-56
2021/12/21 08:28:08;;;;;;;2.50;1.50;;;;;;;1.42;61.29;100493.52;117334;1185;21860;-55
2021/12/21 08:30:38;;;;;;;2.90;1.60;;;;;;;1.46;61.48;100494.84;117309;1185;21850;-58
2021/12/21 08:33:07;;;;;;;3.80;1.60;;;;;;;1.51;61.11;100494.98;117337;1186;23563;-56
2021/12/21 08:35:35;;;;;;;4.20;1.70;;;;;;;1.56;61.32;100497.36;117354;1182;23476;-55
2021/12/21 08:38:05;;;;;;;3.40;1.60;;;;;;;1.68;61.34;100500.77;117316;1184;21856;-55
2021/12/21 08:40:42;;;;;;;3.50;1.90;;;;;;;1.76;61.28;100505.13;117298;1182;22913;-56
2021/12/21 08:43:12;;;;;;;3.30;1.50;;;;;;;1.73;61.26;100514.41;117321;1182;21871;-56
2021/12/21 08:45:41;;;;;;;;;;;;;;;1.71;61.01;100516.09;117208;1185;22907;-56
2021/12/21 08:48:10;;;;;;;3.80;1.90;;;;;;;1.68;61.01;100518.59;117303;1185;21864;-59
2021/12/21 08:50:38;;;;;;;4.00;2.00;;;;;;;1.62;61.09;100520.36;117384;1184;21880;-59
2021/12/21 08:53:08;;;;;;;3.60;1.30;;;;;;;1.57;60.77;100516.06;119374;1184;21784;-57
2021/12/21 08:55:36;;;;;;;3.60;1.60;;;;;;;1.52;60.67;100515.42;117840;1185;23679;-59
2021/12/21 08:58:07;;;;;;;3.70;1.80;;;;;;;1.54;60.89;100514.77;117331;1184;23545;-59
2021/12/21 09:00:36;;;;;;;5.20;1.60;;;;;;;1.58;60.77;100512.48;117310;1185;21985;-57
2021/12/21 09:03:05;;;;;;;2.70;1.30;;;;;;;1.65;60.80;100512.48;117346;1186;21919;-56
2021/12/21 09:05:33;;;;;;;5.50;1.90;;;;;;;1.70;60.87;100512.60;117365;1186;21866;-56
2021/12/21 09:08:03;;;;;;;3.10;1.60;;;;;;;1.74;60.91;100516.14;117264;1183;21855;-59
2021/12/21 09:10:49;;;;;;;3.90;1.80;;;;;;;1.74;60.81;100512.54;117381;1176;21858;-60
2021/12/21 09:13:17;;;;;;;5.80;1.70;;;;;;;1.71;60.58;100521.27;117322;1182;21859;-59
2021/12/21 09:15:45;;;;;;;4.00;2.20;;;;;;;1.68;60.83;100522.92;117334;1185;21926;-58
2021/12/21 09:18:14;;;;;;;4.00;2.00;;;;;;;1.68;60.45;100522.94;117284;1183;21859;-56
2021/12/21 09:20:42;;;;;;;4.10;2.10;;;;;;;1.63;60.33;100522.09;117237;1184;21876;-60
2021/12/21 09:23:12;;;;;;;5.00;2.50;;;;;;;1.56;60.11;100531.24;117032;1186;23459;-60
2021/12/21 09:25:40;;;;;;;19.80;8.80;;;;;;;1.46;60.28;100535.49;117343;1185;22954;-56
2021/12/21 09:28:09;;;;;;;4.70;2.70;;;;;;;1.46;60.29;100537.56;117375;1185;23462;-59
2021/12/21 09:30:37;;;;;;;13.40;8.00;;;;;;;1.39;60.17;100539.10;117286;1188;21872;-56
2021/12/21 09:33:06;;;;;;;5.20;2.80;;;;;;;1.38;60.33;100538.71;117129;1178;21859;-56
2021/12/21 09:35:35;;;;;;;3.90;1.60;;;;;;;1.38;60.48;100544.43;117232;1186;24275;-56
2021/12/21 09:38:04;;;;;;;3.50;1.50;;;;;;;1.39;60.33;100543.77;117335;1182;23539;-56
2021/12/21 09:40:39;;;;;;;4.30;1.30;;;;;;;1.33;60.06;100552.06;117331;1181;22912;-58
2021/12/21 09:43:08;;;;;;;2.60;1.40;;;;;;;1.24;60.20;100549.05;117310;1186;23504;-58
2021/12/21 09:45:37;;;;;;;3.00;1.20;;;;;;;1.17;60.01;100552.13;117331;1181;23585;-58
2021/12/21 09:48:06;;;;;;;3.00;1.40;;;;;;;1.15;60.26;100555.72;117386;1177;21886;-58
2021/12/21 09:50:34;;;;;;;3.80;1.80;;;;;;;1.16;60.32;100553.84;117267;1187;21887;-56
2021/12/21 09:53:03;;;;;;;2.60;1.60;;;;;;;1.17;60.38;100552.67;117270;1181;21921;-58
2021/12/21 09:55:32;;;;;;;3.50;1.80;;;;;;;1.21;60.21;100551.90;117340;1186;23539;-58
2021/12/21 09:58:01;;;;;;;2.30;1.30;;;;;;;1.27;60.58;100554.85;117371;1182;23531;-57
2021/12/21 10:00:32;;;;;;;2.90;1.30;;;;;;;1.34;60.32;100560.57;117364;1182;21929;-58
2021/12/21 10:03:04;;;;;;;3.70;1.30;;;;;;;1.34;60.26;100567.48;117317;1187;21869;-58
2021/12/21 10:05:41;;;;;;;3.10;1.50;;;;;;;1.33;60.24;100570.40;117370;1185;24211;-59
2021/12/21 10:08:11;;;;;;;2.40;1.20;;;;;;;1.32;60.14;100571.78;117396;1184;21864;-57
2021/12/21 10:10:42;;;;;;;3.20;1.30;;;;;;;1.33;60.25;100572.31;117319;1185;24609;-56
2021/12/21 10:13:14;;;;;;;2.10;1.10;;;;;;;1.43;60.43;100568.95;117428;1185;22148;-58
2021/12/21 10:15:47;;;;;;;3.60;1.00;;;;;;;1.56;60.64;100571.55;117339;1184;24155;-58
2021/12/21 10:18:32;;;;;;;2.70;1.30;;;;;;;1.59;60.66;100568.52;117368;1185;21961;-55
2021/12/21 10:21:03;;;;;;;2.80;1.20;;;;;;;1.57;60.26;100567.24;117305;1185;23615;-58
2021/12/21 10:23:39;;;;;;;2.80;1.50;;;;;;;1.51;60.18;100574.02;117309;1185;21892;-55
2021/12/21 10:26:29;;;;;;;2.40;1.10;;;;;;;1.47;60.08;100572.35;117398;1183;21849;-55
2021/12/21 10:28:59;;;;;;;;;;;;;;;1.40;60.04;100570.41;117348;1186;21883;-58
2021/12/21 10:31:30;;;;;;;2.70;1.10;;;;;;;1.33;60.01;100575.42;117335;1181;21862;-59
2021/12/21 10:34:00;;;;;;;4.20;1.50;;;;;;;1.25;60.12;100578.65;117312;1185;22930;-55
2021/12/21 10:36:29;;;;;;;1.90;1.10;;;;;;;1.19;60.00;100573.46;117332;1187;21858;-57
2021/12/21 10:39:06;;;;;;;2.10;0.70;;;;;;;1.21;60.44;100573.20;117325;1182;22004;-55
2021/12/21 10:41:38;;;;;;;2.70;1.20;;;;;;;1.31;60.48;100575.02;117357;1185;24003;-59
2021/12/21 10:44:15;;;;;;;1.90;0.80;;;;;;;1.41;60.64;100575.80;117377;1185;22910;-55
2021/12/21 10:46:48;;;;;;;3.60;1.00;;;;;;;1.53;60.84;100579.60;117433;1183;23531;-58
2021/12/21 10:49:34;;;;;;;1.90;0.90;;;;;;;1.65;60.93;100584.77;117383;1185;23477;-55
2021/12/21 10:52:08;;;;;;;2.50;1.20;;;;;;;1.69;60.73;100586.44;117343;1186;21864;-54
2021/12/21 10:54:42;;;;;;;4.90;2.10;;;;;;;1.72;60.92;100588.60;117380;1175;24149;-59
2021/12/21 10:57:17;;;;;;;5.60;2.20;;;;;;;1.75;60.91;100589.89;117353;1184;21860;-57
2021/12/21 10:59:47;;;;;;;2.40;1.00;;;;;;;1.78;60.87;100586.14;117371;1186;21869;-57
2021/12/21 11:02:20;;;;;;;2.80;1.30;;;;;;;1.77;60.85;100588.37;117295;1184;24144;-58
2021/12/21 11:05:00;;;;;;;3.70;0.90;;;;;;;1.74;60.55;100590.38;117363;1181;23551;-55
2021/12/21 11:07:42;;;;;;;3.10;1.00;;;;;;;1.76;60.49;100599.09;117387;1186;21858;-58
2021/12/21 11:10:14;;;;;;;2.30;0.80;;;;;;;1.83;60.92;100605.50;117325;1184;23426;-55
2021/12/21 11:13:05;;;;;;;2.10;1.00;;;;;;;1.88;60.84;100606.14;117489;1184;21848;-58
2021/12/21 11:15:40;;;;;;;2.50;1.10;;;;;;;1.87;60.65;100615.30;117309;1182;21900;-55
2021/12/21 11:18:16;;;;;;;4.00;1.50;;;;;;;1.82;60.64;100614.46;117303;1182;22900;-57
2021/12/21 11:20:58;;;;;;;10.30;3.80;;;;;;;1.75;60.65;100615.31;117306;1188;23464;-55
2021/12/21 11:23:29;;;;;;;8.40;3.10;;;;;;;1.69;60.54;100618.45;117338;1186;24156;-60
2021/12/21 11:25:58;;;;;;;4.90;2.30;;;;;;;1.65;60.31;100619.21;117287;1186;23465;-57
2021/12/21 11:28:36;;;;;;;4.90;1.30;;;;;;;1.62;60.53;100614.60;117230;1184;23582;-55
2021/12/21 11:31:06;;;;;;;23.60;7.70;;;;;;;1.62;60.62;100622.21;117427;1183;21881;-55
2021/12/21 11:33:41;;;;;;;24.70;8.70;;;;;;;1.60;60.51;100618.54;117351;1185;22979;-55
2021/12/21 11:39:03;;;;;;;3.40;1.30;;;;;;;1.63;60.40;100615.51;117381;1185;23466;-58
2021/12/21 11:41:33;;;;;;;2.50;1.10;;;;;;;1.65;60.46;100620.05;117355;1184;23543;-58
2021/12/21 11:44:29;;;;;;;2.60;1.10;;;;;;;1.66;60.49;100617.49;117307;1185;23439;-58
2021/12/21 11:47:01;;;;;;;6.00;2.20;;;;;;;1.68;60.44;100621.71;117123;1185;21848;-58
2021/12/21 11:49:47;;;;;;;3.80;1.90;;;;;;;1.64;60.07;100625.91;117292;1186;21852;-55
2021/12/21 11:52:24;;;;;;;4.90;2.30;;;;;;;1.58;60.54;100627.81;117292;1186;23567;-56
2021/12/21 11:54:57;;;;;;;4.70;2.00;;;;;;;1.57;60.35;100622.92;117328;1185;24156;-55
2021/12/21 11:57:37;;;;;;;3.10;1.80;;;;;;;1.56;60.19;100628.27;117307;1186;22328;-58
2021/12/21 12:00:27;;;;;;;1.80;1.00;;;;;;;1.72;60.47;100632.90;117402;1185;23432;-56
2021/12/21 12:02:56;;;;;;;1.90;0.90;;;;;;;1.78;60.23;100634.42;117299;1186;22977;-55
2021/12/21 12:05:29;;;;;;;2.70;1.10;;;;;;;1.66;59.83;100635.48;117269;1186;21864;-59
2021/12/21 12:08:08;;;;;;;3.80;1.40;;;;;;;1.56;59.96;100638.67;117344;1185;21901;-59
2021/12/21 12:10:55;;;;;;;1.60;0.80;;;;;;;1.53;59.92;100639.11;117372;1185;23438;-59
2021/12/21 12:13:31;;;;;;;6.80;2.60;;;;;;;1.46;59.93;100643.56;117384;1184;21862;-59
2021/12/21 12:16:20;;;;;;;8.20;1.70;;;;;;;1.37;59.76;100647.11;117379;1184;21850;-56
2021/12/21 12:18:53;;;;;;;3.90;2.00;;;;;;;1.27;59.77;100653.23;117281;1182;21856;-59
2021/12/21 12:21:28;;;;;;;2.60;1.70;;;;;;;1.19;59.68;100657.30;117399;1185;22912;-56
2021/12/21 12:23:58;;;;;;;2.50;1.30;;;;;;;1.11;59.69;100658.25;117333;1185;21865;-55
2021/12/21 12:26:34;;;;;;;3.00;1.10;;;;;;;1.04;59.73;100661.85;117314;1183;23436;-57
2021/12/21 12:29:19;;;;;;;6.70;2.10;;;;;;;0.97;59.60;100661.80;117396;1182;21874;-56
2021/12/21 12:31:59;;;;;;;3.00;1.30;;;;;;;0.86;59.57;100658.73;117350;1188;22016;-56
2021/12/21 12:34:31;;;;;;;3.50;1.20;;;;;;;0.90;60.01;100653.98;117353;1185;23085;-56